sensor_id;sensor_type;location;lat;lon;timestamp;P1;durP1;ratioP1;P2;durP2;ratioP2
7158;SDS011;63175;52.374;13.132;2022-11-20T00:01:26;7.00;;;5.63;;
7158;SDS011;63175;52.374;13.132;2022-11-20T00:03:54;7.30;;;6.60;;
7158;SDS011;63175;52.374;13.132;2022-11-20T00:06:22;6.73;;;5.87;;
7158;SDS011;63175;52.374;13.132;2022-11-20T00:08:50;6.00;;;5.40;;
7158;SDS011;63175;52.374;13.132;2022-11-20T00:11:18;7.13;;;6.43;;
7158;SDS011;63175;52.374;13.132;2022-11-20T00:13:46;6.30;;;5.70;;
7158;SDS011;63175;52.374;13.132;2022-11-20T00:16:16;7.67;;;5.73;;
7158;SDS011;63175;52.374;13.132;2022-11-20T00:18:44;5.73;;;5.13;;
7158;SDS011;63175;52.374;13.132;2022-11-20T00:21:12;11.33;;;6.03;;
7158;SDS011;63175;52.374;13.132;2022-11-20T00:23:40;8.27;;;5.70;;
7158;SDS011;63175;52.374;13.132;2022-11-20T00:26:09;6.70;;;5.30;;
7158;SDS011;63175;52.374;13.132;2022-11-20T00:28:37;5.60;;;5.07;;
7158;SDS011;63175;52.374;13.132;2022-11-20T00:31:05;10.70;;;5.83;;
7158;SDS011;63175;52.374;13.132;2022-11-20T00:33:34;6.73;;;6.00;;
7158;SDS011;63175;52.374;13.132;2022-11-20T00:36:02;6.20;;;5.60;;
7158;SDS011;63175;52.374;13.132;2022-11-20T00:38:29;6.20;;;5.60;;
7158;SDS011;63175;52.374;13.132;2022-11-20T00:40:57;6.07;;;5.47;;
7158;SDS011;63175;52.374;13.132;2022-11-20T00:43:24;5.60;;;5.00;;
7158;SDS011;63175;52.374;13.132;2022-11-20T00:45:55;7.30;;;5.70;;
7158;SDS011;63175;52.374;13.132;2022-11-20T00:48:22;5.37;;;4.87;;
7158;SDS011;63175;52.374;13.132;2022-11-20T00:50:51;4.97;;;4.57;;
7158;SDS011;63175;52.374;13.132;2022-11-20T00:53:18;5.90;;;5.30;;
7158;SDS011;63175;52.374;13.132;2022-11-20T00:55:52;7.63;;;5.77;;
7158;SDS011;63175;52.374;13.132;2022-11-20T00:58:20;6.43;;;5.73;;
7158;SDS011;63175;52.374;13.132;2022-11-20T01:00:47;5.93;;;5.43;;
7158;SDS011;63175;52.374;13.132;2022-11-20T01:03:14;8.33;;;6.80;;
7158;SDS011;63175;52.374;13.132;2022-11-20T01:05:42;6.40;;;4.87;;
7158;SDS011;63175;52.374;13.132;2022-11-20T01:08:10;5.80;;;5.30;;
7158;SDS011;63175;52.374;13.132;2022-11-20T01:10:37;6.30;;;5.70;;
7158;SDS011;63175;52.374;13.132;2022-11-20T01:13:04;5.10;;;4.70;;
7158;SDS011;63175;52.374;13.132;2022-11-20T01:15:53;7.90;;;6.40;;
7158;SDS011;63175;52.374;13.132;2022-11-20T01:18:21;8.53;;;7.63;;
7158;SDS011;63175;52.374;13.132;2022-11-20T01:20:47;9.60;;;6.50;;
7158;SDS011;63175;52.374;13.132;2022-11-20T01:23:16;7.43;;;6.60;;
7158;SDS011;63175;52.374;13.132;2022-11-20T01:25:42;10.80;;;7.57;;
7158;SDS011;63175;52.374;13.132;2022-11-20T01:28:09;8.23;;;6.37;;
7158;SDS011;63175;52.374;13.132;2022-11-20T01:30:36;7.47;;;5.60;;
7158;SDS011;63175;52.374;13.132;2022-11-20T01:33:03;7.73;;;6.43;;
7158;SDS011;63175;52.374;13.132;2022-11-20T01:35:29;6.90;;;5.83;;
7158;SDS011;63175;52.374;13.132;2022-11-20T01:37:56;7.27;;;6.00;;
7158;SDS011;63175;52.374;13.132;2022-11-20T01:40:24;7.80;;;6.87;;
7158;SDS011;63175;52.374;13.132;2022-11-20T01:42:53;11.33;;;6.20;;
7158;SDS011;63175;52.374;13.132;2022-11-20T01:45:54;8.10;;;6.27;;
7158;SDS011;63175;52.374;13.132;2022-11-20T01:48:28;7.70;;;6.70;;
7158;SDS011;63175;52.374;13.132;2022-11-20T01:50:59;8.77;;;6.83;;
7158;SDS011;63175;52.374;13.132;2022-11-20T01:53:28;7.40;;;6.30;;
7158;SDS011;63175;52.374;13.132;2022-11-20T01:56:00;8.13;;;6.73;;
7158;SDS011;63175;52.374;13.132;2022-11-20T01:58:30;8.37;;;7.20;;
7158;SDS011;63175;52.374;13.132;2022-11-20T02:00:59;7.33;;;6.27;;
7158;SDS011;63175;52.374;13.132;2022-11-20T02:03:26;7.27;;;6.17;;
7158;SDS011;63175;52.374;13.132;2022-11-20T02:05:55;7.80;;;5.90;;
7158;SDS011;63175;52.374;13.132;2022-11-20T02:08:25;7.77;;;6.50;;
7158;SDS011;63175;52.374;13.132;2022-11-20T02:10:52;9.07;;;7.47;;
7158;SDS011;63175;52.374;13.132;2022-11-20T02:13:20;6.83;;;6.13;;
7158;SDS011;63175;52.374;13.132;2022-11-20T02:16:05;8.70;;;7.27;;
7158;SDS011;63175;52.374;13.132;2022-11-20T02:18:36;6.83;;;6.17;;
7158;SDS011;63175;52.374;13.132;2022-11-20T02:21:05;7.20;;;6.40;;
7158;SDS011;63175;52.374;13.132;2022-11-20T02:23:36;7.90;;;6.10;;
7158;SDS011;63175;52.374;13.132;2022-11-20T02:26:07;9.00;;;5.83;;
7158;SDS011;63175;52.374;13.132;2022-11-20T02:28:38;6.80;;;5.50;;
7158;SDS011;63175;52.374;13.132;2022-11-20T02:31:05;6.87;;;6.17;;
7158;SDS011;63175;52.374;13.132;2022-11-20T02:33:33;6.73;;;5.90;;
7158;SDS011;63175;52.374;13.132;2022-11-20T02:35:59;8.90;;;5.97;;
7158;SDS011;63175;52.374;13.132;2022-11-20T02:38:27;8.30;;;6.80;;
7158;SDS011;63175;52.374;13.132;2022-11-20T02:40:54;9.33;;;6.53;;
7158;SDS011;63175;52.374;13.132;2022-11-20T02:43:22;11.73;;;7.83;;
7158;SDS011;63175;52.374;13.132;2022-11-20T02:45:49;9.53;;;7.57;;
7158;SDS011;63175;52.374;13.132;2022-11-20T02:48:16;10.30;;;8.27;;
7158;SDS011;63175;52.374;13.132;2022-11-20T02:50:42;7.53;;;6.07;;
7158;SDS011;63175;52.374;13.132;2022-11-20T02:53:09;9.10;;;7.70;;
7158;SDS011;63175;52.374;13.132;2022-11-20T02:55:36;10.17;;;6.40;;
7158;SDS011;63175;52.374;13.132;2022-11-20T02:58:03;9.90;;;7.47;;
7158;SDS011;63175;52.374;13.132;2022-11-20T03:00:32;9.27;;;7.00;;
7158;SDS011;63175;52.374;13.132;2022-11-20T03:02:58;9.30;;;7.13;;
7158;SDS011;63175;52.374;13.132;2022-11-20T03:05:25;8.50;;;6.57;;
7158;SDS011;63175;52.374;13.132;2022-11-20T03:07:52;12.70;;;7.43;;
7158;SDS011;63175;52.374;13.132;2022-11-20T03:10:19;8.63;;;6.77;;
7158;SDS011;63175;52.374;13.132;2022-11-20T03:12:46;8.13;;;6.67;;
7158;SDS011;63175;52.374;13.132;2022-11-20T03:15:12;8.40;;;6.67;;
7158;SDS011;63175;52.374;13.132;2022-11-20T03:17:41;12.23;;;6.50;;
7158;SDS011;63175;52.374;13.132;2022-11-20T03:20:08;8.30;;;6.17;;
7158;SDS011;63175;52.374;13.132;2022-11-20T03:22:36;7.60;;;6.60;;
7158;SDS011;63175;52.374;13.132;2022-11-20T03:25:03;8.90;;;6.40;;
7158;SDS011;63175;52.374;13.132;2022-11-20T03:27:31;6.43;;;5.83;;
7158;SDS011;63175;52.374;13.132;2022-11-20T03:29:59;10.33;;;7.20;;
7158;SDS011;63175;52.374;13.132;2022-11-20T03:32:26;7.60;;;6.47;;
7158;SDS011;63175;52.374;13.132;2022-11-20T03:34:54;8.97;;;7.17;;
7158;SDS011;63175;52.374;13.132;2022-11-20T03:37:21;8.03;;;6.60;;
7158;SDS011;63175;52.374;13.132;2022-11-20T03:39:48;10.20;;;7.43;;
7158;SDS011;63175;52.374;13.132;2022-11-20T03:42:15;8.83;;;6.80;;
7158;SDS011;63175;52.374;13.132;2022-11-20T03:44:56;7.83;;;5.93;;
7158;SDS011;63175;52.374;13.132;2022-11-20T03:47:22;9.13;;;6.93;;
7158;SDS011;63175;52.374;13.132;2022-11-20T03:49:49;8.90;;;6.40;;
7158;SDS011;63175;52.374;13.132;2022-11-20T03:52:17;7.67;;;6.30;;
7158;SDS011;63175;52.374;13.132;2022-11-20T03:54:44;7.93;;;6.20;;
7158;SDS011;63175;52.374;13.132;2022-11-20T03:57:11;9.20;;;7.13;;
7158;SDS011;63175;52.374;13.132;2022-11-20T03:59:38;7.20;;;6.33;;
7158;SDS011;63175;52.374;13.132;2022-11-20T04:02:05;12.40;;;6.80;;
7158;SDS011;63175;52.374;13.132;2022-11-20T04:04:33;7.97;;;6.63;;
7158;SDS011;63175;52.374;13.132;2022-11-20T04:06:59;8.70;;;7.20;;
7158;SDS011;63175;52.374;13.132;2022-11-20T04:09:28;8.33;;;6.67;;
7158;SDS011;63175;52.374;13.132;2022-11-20T04:11:54;8.63;;;7.20;;
7158;SDS011;63175;52.374;13.132;2022-11-20T04:14:21;9.20;;;7.23;;
7158;SDS011;63175;52.374;13.132;2022-11-20T04:16:48;9.13;;;8.07;;
7158;SDS011;63175;52.374;13.132;2022-11-20T04:19:15;7.87;;;7.07;;
7158;SDS011;63175;52.374;13.132;2022-11-20T04:21:43;10.73;;;8.53;;
7158;SDS011;63175;52.374;13.132;2022-11-20T04:24:10;9.77;;;7.70;;
7158;SDS011;63175;52.374;13.132;2022-11-20T04:26:39;10.13;;;7.67;;
7158;SDS011;63175;52.374;13.132;2022-11-20T04:29:06;10.23;;;8.17;;
7158;SDS011;63175;52.374;13.132;2022-11-20T04:31:36;10.63;;;8.07;;
7158;SDS011;63175;52.374;13.132;2022-11-20T04:34:03;10.47;;;8.90;;
7158;SDS011;63175;52.374;13.132;2022-11-20T04:36:31;11.60;;;8.57;;
7158;SDS011;63175;52.374;13.132;2022-11-20T04:38:59;10.10;;;7.60;;
7158;SDS011;63175;52.374;13.132;2022-11-20T04:41:28;11.43;;;9.83;;
7158;SDS011;63175;52.374;13.132;2022-11-20T04:43:57;15.77;;;9.47;;
7158;SDS011;63175;52.374;13.132;2022-11-20T04:46:28;13.40;;;9.03;;
7158;SDS011;63175;52.374;13.132;2022-11-20T04:48:56;11.20;;;8.00;;
7158;SDS011;63175;52.374;13.132;2022-11-20T04:51:23;12.07;;;8.57;;
7158;SDS011;63175;52.374;13.132;2022-11-20T04:53:50;9.40;;;7.70;;
7158;SDS011;63175;52.374;13.132;2022-11-20T04:56:17;10.03;;;7.97;;
7158;SDS011;63175;52.374;13.132;2022-11-20T04:58:44;8.87;;;7.47;;
7158;SDS011;63175;52.374;13.132;2022-11-20T05:01:13;10.80;;;7.93;;
7158;SDS011;63175;52.374;13.132;2022-11-20T05:03:41;10.70;;;7.67;;
7158;SDS011;63175;52.374;13.132;2022-11-20T05:06:10;8.13;;;6.90;;
7158;SDS011;63175;52.374;13.132;2022-11-20T05:08:37;6.70;;;6.00;;
7158;SDS011;63175;52.374;13.132;2022-11-20T05:11:06;10.43;;;7.57;;
7158;SDS011;63175;52.374;13.132;2022-11-20T05:13:34;11.00;;;7.17;;
7158;SDS011;63175;52.374;13.132;2022-11-20T05:16:02;9.80;;;7.70;;
7158;SDS011;63175;52.374;13.132;2022-11-20T05:18:30;10.17;;;7.77;;
7158;SDS011;63175;52.374;13.132;2022-11-20T05:20:57;12.60;;;8.47;;
7158;SDS011;63175;52.374;13.132;2022-11-20T05:23:24;16.00;;;9.17;;
7158;SDS011;63175;52.374;13.132;2022-11-20T05:25:52;11.80;;;9.33;;
7158;SDS011;63175;52.374;13.132;2022-11-20T05:28:19;12.07;;;9.00;;
7158;SDS011;63175;52.374;13.132;2022-11-20T05:30:46;11.27;;;8.87;;
7158;SDS011;63175;52.374;13.132;2022-11-20T05:33:13;13.47;;;9.00;;
7158;SDS011;63175;52.374;13.132;2022-11-20T05:35:41;13.20;;;9.40;;
7158;SDS011;63175;52.374;13.132;2022-11-20T05:38:08;13.67;;;9.40;;
7158;SDS011;63175;52.374;13.132;2022-11-20T05:40:35;11.43;;;8.83;;
7158;SDS011;63175;52.374;13.132;2022-11-20T05:43:02;14.13;;;9.57;;
7158;SDS011;63175;52.374;13.132;2022-11-20T05:45:29;14.93;;;8.50;;
7158;SDS011;63175;52.374;13.132;2022-11-20T05:47:57;11.57;;;9.30;;
7158;SDS011;63175;52.374;13.132;2022-11-20T05:50:25;10.37;;;8.80;;
7158;SDS011;63175;52.374;13.132;2022-11-20T05:52:53;10.60;;;8.60;;
7158;SDS011;63175;52.374;13.132;2022-11-20T05:55:20;10.60;;;8.80;;
7158;SDS011;63175;52.374;13.132;2022-11-20T05:57:47;14.13;;;10.47;;
7158;SDS011;63175;52.374;13.132;2022-11-20T06:00:14;13.37;;;9.90;;
7158;SDS011;63175;52.374;13.132;2022-11-20T06:02:41;12.33;;;9.30;;
7158;SDS011;63175;52.374;13.132;2022-11-20T06:05:08;13.73;;;9.53;;
7158;SDS011;63175;52.374;13.132;2022-11-20T06:07:35;12.33;;;9.07;;
7158;SDS011;63175;52.374;13.132;2022-11-20T06:10:03;12.17;;;8.80;;
7158;SDS011;63175;52.374;13.132;2022-11-20T06:12:31;13.10;;;8.83;;
7158;SDS011;63175;52.374;13.132;2022-11-20T06:14:58;11.27;;;8.63;;
7158;SDS011;63175;52.374;13.132;2022-11-20T06:17:25;14.30;;;9.20;;
7158;SDS011;63175;52.374;13.132;2022-11-20T06:19:52;9.10;;;8.20;;
7158;SDS011;63175;52.374;13.132;2022-11-20T06:22:19;12.03;;;7.93;;
7158;SDS011;63175;52.374;13.132;2022-11-20T06:24:46;10.70;;;9.00;;
7158;SDS011;63175;52.374;13.132;2022-11-20T06:27:14;12.53;;;9.40;;
7158;SDS011;63175;52.374;13.132;2022-11-20T06:29:41;14.83;;;10.30;;
7158;SDS011;63175;52.374;13.132;2022-11-20T06:32:08;17.43;;;10.20;;
7158;SDS011;63175;52.374;13.132;2022-11-20T06:34:35;11.97;;;8.73;;
7158;SDS011;63175;52.374;13.132;2022-11-20T06:37:02;10.67;;;8.80;;
7158;SDS011;63175;52.374;13.132;2022-11-20T06:39:29;12.90;;;9.90;;
7158;SDS011;63175;52.374;13.132;2022-11-20T06:41:56;15.13;;;9.20;;
7158;SDS011;63175;52.374;13.132;2022-11-20T06:44:24;12.33;;;9.40;;
7158;SDS011;63175;52.374;13.132;2022-11-20T06:46:51;13.20;;;9.37;;
7158;SDS011;63175;52.374;13.132;2022-11-20T06:49:17;11.93;;;8.77;;
7158;SDS011;63175;52.374;13.132;2022-11-20T06:51:44;12.03;;;8.70;;
7158;SDS011;63175;52.374;13.132;2022-11-20T06:54:12;13.50;;;8.97;;
7158;SDS011;63175;52.374;13.132;2022-11-20T06:56:39;14.43;;;11.00;;
7158;SDS011;63175;52.374;13.132;2022-11-20T06:59:06;13.20;;;9.07;;
7158;SDS011;63175;52.374;13.132;2022-11-20T07:01:35;10.30;;;7.97;;
7158;SDS011;63175;52.374;13.132;2022-11-20T07:04:02;10.33;;;8.73;;
7158;SDS011;63175;52.374;13.132;2022-11-20T07:06:29;10.00;;;8.60;;
7158;SDS011;63175;52.374;13.132;2022-11-20T07:08:55;13.73;;;9.60;;
7158;SDS011;63175;52.374;13.132;2022-11-20T07:11:22;12.47;;;9.50;;
7158;SDS011;63175;52.374;13.132;2022-11-20T07:13:50;12.47;;;8.70;;
7158;SDS011;63175;52.374;13.132;2022-11-20T07:16:17;10.57;;;7.80;;
7158;SDS011;63175;52.374;13.132;2022-11-20T07:18:45;12.17;;;8.87;;
7158;SDS011;63175;52.374;13.132;2022-11-20T07:21:12;17.83;;;10.47;;
7158;SDS011;63175;52.374;13.132;2022-11-20T07:23:40;12.70;;;9.20;;
7158;SDS011;63175;52.374;13.132;2022-11-20T07:26:07;15.90;;;11.30;;
7158;SDS011;63175;52.374;13.132;2022-11-20T07:28:35;14.67;;;10.00;;
7158;SDS011;63175;52.374;13.132;2022-11-20T07:31:03;20.30;;;11.30;;
7158;SDS011;63175;52.374;13.132;2022-11-20T07:33:31;15.67;;;10.50;;
7158;SDS011;63175;52.374;13.132;2022-11-20T07:36:00;15.37;;;10.23;;
7158;SDS011;63175;52.374;13.132;2022-11-20T07:38:27;18.33;;;11.10;;
7158;SDS011;63175;52.374;13.132;2022-11-20T07:40:54;14.43;;;9.90;;
7158;SDS011;63175;52.374;13.132;2022-11-20T07:43:22;14.10;;;10.57;;
7158;SDS011;63175;52.374;13.132;2022-11-20T07:45:50;14.37;;;9.33;;
7158;SDS011;63175;52.374;13.132;2022-11-20T07:48:16;11.13;;;8.67;;
7158;SDS011;63175;52.374;13.132;2022-11-20T07:50:43;14.07;;;9.27;;
7158;SDS011;63175;52.374;13.132;2022-11-20T07:53:12;13.73;;;8.73;;
7158;SDS011;63175;52.374;13.132;2022-11-20T07:55:39;14.80;;;9.77;;
7158;SDS011;63175;52.374;13.132;2022-11-20T07:58:06;12.67;;;9.40;;
7158;SDS011;63175;52.374;13.132;2022-11-20T08:00:33;13.40;;;10.10;;
7158;SDS011;63175;52.374;13.132;2022-11-20T08:03:02;10.97;;;8.63;;
7158;SDS011;63175;52.374;13.132;2022-11-20T08:05:29;12.20;;;8.60;;
7158;SDS011;63175;52.374;13.132;2022-11-20T08:07:56;13.67;;;10.10;;
7158;SDS011;63175;52.374;13.132;2022-11-20T08:10:24;15.23;;;10.63;;
7158;SDS011;63175;52.374;13.132;2022-11-20T08:12:52;19.63;;;9.90;;
7158;SDS011;63175;52.374;13.132;2022-11-20T08:15:48;15.87;;;9.97;;
7158;SDS011;63175;52.374;13.132;2022-11-20T08:18:16;13.93;;;8.80;;
7158;SDS011;63175;52.374;13.132;2022-11-20T08:20:44;14.13;;;9.67;;
7158;SDS011;63175;52.374;13.132;2022-11-20T08:23:10;13.00;;;9.17;;
7158;SDS011;63175;52.374;13.132;2022-11-20T08:25:39;14.27;;;9.87;;
7158;SDS011;63175;52.374;13.132;2022-11-20T08:28:07;13.53;;;9.27;;
7158;SDS011;63175;52.374;13.132;2022-11-20T08:30:35;17.20;;;10.40;;
7158;SDS011;63175;52.374;13.132;2022-11-20T08:33:03;13.47;;;9.10;;
7158;SDS011;63175;52.374;13.132;2022-11-20T08:35:32;13.43;;;10.27;;
7158;SDS011;63175;52.374;13.132;2022-11-20T08:38:00;11.57;;;9.03;;
7158;SDS011;63175;52.374;13.132;2022-11-20T08:40:26;12.03;;;8.73;;
7158;SDS011;63175;52.374;13.132;2022-11-20T08:42:55;11.93;;;10.17;;
7158;SDS011;63175;52.374;13.132;2022-11-20T08:45:21;12.43;;;9.80;;
7158;SDS011;63175;52.374;13.132;2022-11-20T08:47:48;13.10;;;9.00;;
7158;SDS011;63175;52.374;13.132;2022-11-20T08:50:16;12.43;;;9.20;;
7158;SDS011;63175;52.374;13.132;2022-11-20T08:52:43;11.40;;;9.50;;
7158;SDS011;63175;52.374;13.132;2022-11-20T08:55:10;13.10;;;9.93;;
7158;SDS011;63175;52.374;13.132;2022-11-20T08:57:37;15.30;;;9.70;;
7158;SDS011;63175;52.374;13.132;2022-11-20T09:00:07;11.93;;;8.13;;
7158;SDS011;63175;52.374;13.132;2022-11-20T09:02:36;11.13;;;7.70;;
7158;SDS011;63175;52.374;13.132;2022-11-20T09:05:03;10.57;;;7.80;;
7158;SDS011;63175;52.374;13.132;2022-11-20T09:07:30;7.80;;;7.00;;
7158;SDS011;63175;52.374;13.132;2022-11-20T09:09:57;9.50;;;8.50;;
7158;SDS011;63175;52.374;13.132;2022-11-20T09:12:24;11.20;;;9.03;;
7158;SDS011;63175;52.374;13.132;2022-11-20T09:14:50;13.67;;;9.20;;
7158;SDS011;63175;52.374;13.132;2022-11-20T09:17:19;13.00;;;9.53;;
7158;SDS011;63175;52.374;13.132;2022-11-20T09:19:46;11.30;;;8.47;;
7158;SDS011;63175;52.374;13.132;2022-11-20T09:22:13;14.00;;;9.70;;
7158;SDS011;63175;52.374;13.132;2022-11-20T09:24:40;13.63;;;9.03;;
7158;SDS011;63175;52.374;13.132;2022-11-20T09:27:07;14.10;;;10.50;;
7158;SDS011;63175;52.374;13.132;2022-11-20T09:29:34;10.67;;;8.67;;
7158;SDS011;63175;52.374;13.132;2022-11-20T09:32:01;14.50;;;9.63;;
7158;SDS011;63175;52.374;13.132;2022-11-20T09:34:30;12.93;;;8.80;;
7158;SDS011;63175;52.374;13.132;2022-11-20T09:36:56;20.20;;;10.13;;
7158;SDS011;63175;52.374;13.132;2022-11-20T09:39:23;13.57;;;9.27;;
7158;SDS011;63175;52.374;13.132;2022-11-20T09:42:03;13.37;;;9.73;;
7158;SDS011;63175;52.374;13.132;2022-11-20T09:44:40;12.93;;;10.13;;
7158;SDS011;63175;52.374;13.132;2022-11-20T09:47:16;14.90;;;9.83;;
7158;SDS011;63175;52.374;13.132;2022-11-20T09:49:56;10.53;;;8.67;;
7158;SDS011;63175;52.374;13.132;2022-11-20T09:52:36;11.73;;;8.37;;
7158;SDS011;63175;52.374;13.132;2022-11-20T09:55:11;8.93;;;8.03;;
7158;SDS011;63175;52.374;13.132;2022-11-20T09:57:40;10.80;;;9.13;;
7158;SDS011;63175;52.374;13.132;2022-11-20T10:00:10;13.80;;;9.60;;
7158;SDS011;63175;52.374;13.132;2022-11-20T10:02:40;14.87;;;9.37;;
7158;SDS011;63175;52.374;13.132;2022-11-20T10:05:15;13.10;;;8.80;;
7158;SDS011;63175;52.374;13.132;2022-11-20T10:07:46;12.00;;;8.83;;
7158;SDS011;63175;52.374;13.132;2022-11-20T10:10:21;12.43;;;8.77;;
7158;SDS011;63175;52.374;13.132;2022-11-20T10:12:58;10.53;;;8.13;;
7158;SDS011;63175;52.374;13.132;2022-11-20T10:15:38;11.47;;;8.90;;
7158;SDS011;63175;52.374;13.132;2022-11-20T10:18:18;9.77;;;7.50;;
7158;SDS011;63175;52.374;13.132;2022-11-20T10:20:58;10.00;;;7.90;;
7158;SDS011;63175;52.374;13.132;2022-11-20T10:23:45;9.27;;;7.83;;
7158;SDS011;63175;52.374;13.132;2022-11-20T10:26:22;11.23;;;8.77;;
7158;SDS011;63175;52.374;13.132;2022-11-20T10:29:01;9.43;;;8.10;;
7158;SDS011;63175;52.374;13.132;2022-11-20T10:31:35;10.73;;;8.00;;
7158;SDS011;63175;52.374;13.132;2022-11-20T10:34:05;12.17;;;9.30;;
7158;SDS011;63175;52.374;13.132;2022-11-20T10:36:40;9.43;;;8.43;;
7158;SDS011;63175;52.374;13.132;2022-11-20T10:39:15;10.03;;;8.00;;
7158;SDS011;63175;52.374;13.132;2022-11-20T10:41:49;12.30;;;8.63;;
7158;SDS011;63175;52.374;13.132;2022-11-20T10:44:19;11.73;;;7.60;;
7158;SDS011;63175;52.374;13.132;2022-11-20T10:47:05;9.10;;;7.53;;
7158;SDS011;63175;52.374;13.132;2022-11-20T10:49:38;8.17;;;6.63;;
7158;SDS011;63175;52.374;13.132;2022-11-20T10:52:10;8.73;;;7.00;;
7158;SDS011;63175;52.374;13.132;2022-11-20T10:54:46;11.63;;;7.90;;
7158;SDS011;63175;52.374;13.132;2022-11-20T10:57:23;9.93;;;7.67;;
7158;SDS011;63175;52.374;13.132;2022-11-20T10:59:59;8.93;;;7.57;;
7158;SDS011;63175;52.374;13.132;2022-11-20T11:02:32;9.30;;;7.83;;
7158;SDS011;63175;52.374;13.132;2022-11-20T11:05:04;10.90;;;7.37;;
7158;SDS011;63175;52.374;13.132;2022-11-20T11:07:42;9.17;;;6.73;;
7158;SDS011;63175;52.374;13.132;2022-11-20T11:10:14;9.60;;;6.60;;
7158;SDS011;63175;52.374;13.132;2022-11-20T11:12:43;7.50;;;6.70;;
7158;SDS011;63175;52.374;13.132;2022-11-20T11:15:13;7.00;;;6.10;;
7158;SDS011;63175;52.374;13.132;2022-11-20T11:17:51;8.97;;;6.97;;
7158;SDS011;63175;52.374;13.132;2022-11-20T11:20:19;11.37;;;7.30;;
7158;SDS011;63175;52.374;13.132;2022-11-20T11:22:49;9.97;;;7.73;;
7158;SDS011;63175;52.374;13.132;2022-11-20T11:25:18;9.70;;;7.10;;
7158;SDS011;63175;52.374;13.132;2022-11-20T11:27:56;8.77;;;6.20;;
7158;SDS011;63175;52.374;13.132;2022-11-20T11:30:25;10.40;;;7.53;;
7158;SDS011;63175;52.374;13.132;2022-11-20T11:33:02;9.30;;;6.43;;
7158;SDS011;63175;52.374;13.132;2022-11-20T11:35:31;8.93;;;7.07;;
7158;SDS011;63175;52.374;13.132;2022-11-20T11:38:04;10.17;;;7.07;;
7158;SDS011;63175;52.374;13.132;2022-11-20T11:40:34;7.33;;;6.60;;
7158;SDS011;63175;52.374;13.132;2022-11-20T11:43:05;8.43;;;7.20;;
7158;SDS011;63175;52.374;13.132;2022-11-20T11:45:54;5.93;;;5.37;;
7158;SDS011;63175;52.374;13.132;2022-11-20T11:48:20;5.43;;;4.90;;
7158;SDS011;63175;52.374;13.132;2022-11-20T11:50:48;5.17;;;4.57;;
7158;SDS011;63175;52.374;13.132;2022-11-20T11:53:17;6.13;;;5.23;;
7158;SDS011;63175;52.374;13.132;2022-11-20T11:55:47;6.37;;;5.10;;
7158;SDS011;63175;52.374;13.132;2022-11-20T11:58:19;6.00;;;4.47;;
7158;SDS011;63175;52.374;13.132;2022-11-20T12:01:00;6.07;;;4.70;;
7158;SDS011;63175;52.374;13.132;2022-11-20T12:03:34;6.70;;;4.90;;
7158;SDS011;63175;52.374;13.132;2022-11-20T12:06:04;8.27;;;5.00;;
7158;SDS011;63175;52.374;13.132;2022-11-20T12:08:39;7.67;;;4.70;;
7158;SDS011;63175;52.374;13.132;2022-11-20T12:11:13;3.80;;;3.50;;
7158;SDS011;63175;52.374;13.132;2022-11-20T12:13:46;6.13;;;4.53;;
7158;SDS011;63175;52.374;13.132;2022-11-20T12:16:19;4.90;;;3.93;;
7158;SDS011;63175;52.374;13.132;2022-11-20T12:18:47;5.20;;;4.40;;
7158;SDS011;63175;52.374;13.132;2022-11-20T12:21:20;6.07;;;4.50;;
7158;SDS011;63175;52.374;13.132;2022-11-20T12:23:59;4.67;;;3.87;;
7158;SDS011;63175;52.374;13.132;2022-11-20T12:26:49;5.70;;;4.50;;
7158;SDS011;63175;52.374;13.132;2022-11-20T12:29:29;7.20;;;4.57;;
7158;SDS011;63175;52.374;13.132;2022-11-20T12:32:15;7.47;;;4.83;;
7158;SDS011;63175;52.374;13.132;2022-11-20T12:35:14;4.97;;;4.10;;
7158;SDS011;63175;52.374;13.132;2022-11-20T12:37:53;4.67;;;4.03;;
7158;SDS011;63175;52.374;13.132;2022-11-20T12:40:38;5.60;;;4.70;;
7158;SDS011;63175;52.374;13.132;2022-11-20T12:43:11;6.40;;;4.93;;
7158;SDS011;63175;52.374;13.132;2022-11-20T12:46:05;4.97;;;4.50;;
7158;SDS011;63175;52.374;13.132;2022-11-20T12:48:38;4.97;;;4.30;;
7158;SDS011;63175;52.374;13.132;2022-11-20T12:54:26;5.83;;;4.83;;
7158;SDS011;63175;52.374;13.132;2022-11-20T12:57:14;6.87;;;4.80;;
7158;SDS011;63175;52.374;13.132;2022-11-20T12:59:55;6.30;;;4.50;;
7158;SDS011;63175;52.374;13.132;2022-11-20T13:02:37;5.83;;;5.23;;
7158;SDS011;63175;52.374;13.132;2022-11-20T13:05:24;8.63;;;5.67;;
7158;SDS011;63175;52.374;13.132;2022-11-20T13:07:57;6.17;;;5.57;;
7158;SDS011;63175;52.374;13.132;2022-11-20T13:10:27;5.43;;;4.97;;
7158;SDS011;63175;52.374;13.132;2022-11-20T13:13:02;5.87;;;4.73;;
7158;SDS011;63175;52.374;13.132;2022-11-20T13:15:39;5.63;;;4.87;;
7158;SDS011;63175;52.374;13.132;2022-11-20T13:18:13;6.97;;;5.50;;
7158;SDS011;63175;52.374;13.132;2022-11-20T13:20:44;4.60;;;4.20;;
7158;SDS011;63175;52.374;13.132;2022-11-20T13:23:22;4.70;;;4.27;;
7158;SDS011;63175;52.374;13.132;2022-11-20T13:25:50;5.57;;;4.80;;
7158;SDS011;63175;52.374;13.132;2022-11-20T13:28:29;6.30;;;5.30;;
7158;SDS011;63175;52.374;13.132;2022-11-20T13:30:57;8.33;;;5.10;;
7158;SDS011;63175;52.374;13.132;2022-11-20T13:33:27;7.40;;;5.40;;
7158;SDS011;63175;52.374;13.132;2022-11-20T13:35:57;6.07;;;5.47;;
7158;SDS011;63175;52.374;13.132;2022-11-20T13:38:26;6.40;;;4.60;;
7158;SDS011;63175;52.374;13.132;2022-11-20T13:40:55;6.33;;;4.90;;
7158;SDS011;63175;52.374;13.132;2022-11-20T13:43:26;5.57;;;5.00;;
7158;SDS011;63175;52.374;13.132;2022-11-20T13:46:01;5.63;;;4.87;;
7158;SDS011;63175;52.374;13.132;2022-11-20T13:48:31;5.27;;;4.77;;
7158;SDS011;63175;52.374;13.132;2022-11-20T13:51:03;5.90;;;5.30;;
7158;SDS011;63175;52.374;13.132;2022-11-20T13:53:41;5.30;;;4.80;;
7158;SDS011;63175;52.374;13.132;2022-11-20T13:56:24;5.43;;;4.93;;
7158;SDS011;63175;52.374;13.132;2022-11-20T13:59:02;5.93;;;4.87;;
7158;SDS011;63175;52.374;13.132;2022-11-20T14:01:36;5.93;;;4.97;;
7158;SDS011;63175;52.374;13.132;2022-11-20T14:04:06;5.67;;;5.10;;
7158;SDS011;63175;52.374;13.132;2022-11-20T14:06:38;7.00;;;5.30;;
7158;SDS011;63175;52.374;13.132;2022-11-20T14:09:10;5.10;;;3.87;;
7158;SDS011;63175;52.374;13.132;2022-11-20T14:11:45;5.97;;;5.10;;
7158;SDS011;63175;52.374;13.132;2022-11-20T14:14:15;5.03;;;4.50;;
7158;SDS011;63175;52.374;13.132;2022-11-20T14:16:44;5.03;;;4.60;;
7158;SDS011;63175;52.374;13.132;2022-11-20T14:19:22;4.43;;;4.03;;
7158;SDS011;63175;52.374;13.132;2022-11-20T14:21:53;4.13;;;3.73;;
7158;SDS011;63175;52.374;13.132;2022-11-20T14:24:21;5.83;;;5.23;;
7158;SDS011;63175;52.374;13.132;2022-11-20T14:26:50;8.50;;;5.17;;
7158;SDS011;63175;52.374;13.132;2022-11-20T14:29:19;6.93;;;4.97;;
7158;SDS011;63175;52.374;13.132;2022-11-20T14:31:51;5.60;;;5.07;;
7158;SDS011;63175;52.374;13.132;2022-11-20T14:34:20;7.20;;;6.30;;
7158;SDS011;63175;52.374;13.132;2022-11-20T14:36:49;8.13;;;5.47;;
7158;SDS011;63175;52.374;13.132;2022-11-20T14:39:20;9.50;;;6.40;;
7158;SDS011;63175;52.374;13.132;2022-11-20T14:41:50;7.40;;;5.50;;
7158;SDS011;63175;52.374;13.132;2022-11-20T14:44:26;7.70;;;5.50;;
7158;SDS011;63175;52.374;13.132;2022-11-20T14:46:55;7.27;;;5.80;;
7158;SDS011;63175;52.374;13.132;2022-11-20T14:49:22;8.83;;;5.13;;
7158;SDS011;63175;52.374;13.132;2022-11-20T14:51:58;6.87;;;5.60;;
7158;SDS011;63175;52.374;13.132;2022-11-20T14:54:26;6.20;;;5.60;;
7158;SDS011;63175;52.374;13.132;2022-11-20T14:56:55;5.30;;;4.80;;
7158;SDS011;63175;52.374;13.132;2022-11-20T14:59:24;6.00;;;5.40;;
7158;SDS011;63175;52.374;13.132;2022-11-20T15:01:56;5.60;;;5.10;;